Time;durP1;ratioP1;P1;durP2;ratioP2;P2;SDS_P1;SDS_P2;PMS_P1;PMS_P2;Temp;Humidity;BMP_temperature;BMP_pressure;BME280_temperature;BME280_humidity;BME280_pressure;Samples;Min_cycle;Max_cycle;Signal;HPM_P1;HPM_P2
2023/03/12 00:00:40;;;;;;;6.30;3.57;;;;;;;;;;4963175;28;20455;-75
2023/03/12 00:03:07;;;;;;;4.53;2.60;;;;;;;;;;4935558;28;219172;-72
2023/03/12 00:05:36;;;;;;;4.23;2.23;;;;;;;;;;4961595;28;20319;-73
2023/03/12 00:08:02;;;;;;;5.93;3.87;;;;;;;;;;4961644;28;20256;-73
2023/03/12 00:10:29;;;;;;;7.10;3.70;;;;;;;;;;4970133;28;24567;-73
2023/03/12 00:12:56;;;;;;;5.03;3.37;;;;;;;;;;4965639;28;59115;-70
2023/03/12 00:15:23;;;;;;;4.33;2.43;;;;;;;;;;4927880;28;30669;-73
2023/03/12 00:17:49;;;;;;;4.27;3.13;;;;;;;;;;4954152;28;67118;-72
2023/03/12 00:20:16;;;;;;;2.77;1.87;;;;;;;;;;4961117;28;20456;-74
2023/03/12 00:22:43;;;;;;;4.77;3.03;;;;;;;;;;4958638;28;20504;-73
2023/03/12 00:25:11;;;;;;;6.37;3.50;;;;;;;;;;4956693;28;21005;-74
2023/03/12 00:27:38;;;;;;;4.83;2.70;;;;;;;;;;4959213;28;20448;-73
2023/03/12 00:30:06;;;;;;;4.30;2.50;;;;;;;;;;4946670;28;20490;-73
2023/03/12 00:32:33;;;;;;;5.17;3.20;;;;;;;;;;4961541;28;20471;-73
2023/03/12 00:35:00;;;;;;;4.10;1.80;;;;;;;;;;4946371;28;20482;-75
2023/03/12 00:37:26;;;;;;;8.30;2.80;;;;;;;;;;4943519;28;20456;-73
2023/03/12 00:39:53;;;;;;;4.70;2.47;;;;;;;;;;4929730;28;20866;-74
2023/03/12 00:42:37;;;;;;;3.77;2.40;;;;;;;;;;4944326;28;20531;-73
2023/03/12 00:45:04;;;;;;;3.70;2.10;;;;;;;;;;4946858;28;20244;-73
2023/03/12 00:47:48;;;;;;;3.53;1.80;;;;;;;;;;4944242;28;20460;-73
2023/03/12 00:50:15;;;;;;;5.90;2.27;;;;;;;;;;4947878;28;20472;-74
2023/03/12 00:52:41;;;;;;;3.40;2.20;;;;;;;;;;4916533;28;20459;-73
2023/03/12 00:55:08;;;;;;;3.70;2.47;;;;;;;;;;4948676;28;20951;-73
2023/03/12 00:57:35;;;;;;;4.57;2.23;;;;;;;;;;4946792;28;20460;-74
2023/03/12 01:00:19;;;;;;;2.13;1.10;;;;;;;;;;4948003;28;20506;-73
2023/03/12 01:02:46;;;;;;;5.10;2.40;;;;;;;;;;4947082;28;20491;-74
2023/03/12 01:05:13;;;;;;;4.70;2.00;;;;;;;;;;4946862;28;20467;-74
2023/03/12 01:07:40;;;;;;;3.57;1.73;;;;;;;;;;4947114;28;20525;-74
2023/03/12 01:10:07;;;;;;;2.07;1.30;;;;;;;;;;4958879;28;20452;-74
2023/03/12 01:12:34;;;;;;;3.77;1.77;;;;;;;;;;4966249;28;20965;-74
2023/03/12 01:15:00;;;;;;;2.47;1.40;;;;;;;;;;4967967;28;20461;-74
2023/03/12 01:17:27;;;;;;;2.73;1.67;;;;;;;;;;4979344;28;20452;-74
2023/03/12 01:19:54;;;;;;;2.80;1.70;;;;;;;;;;4987187;28;20465;-74
2023/03/12 01:22:20;;;;;;;3.67;1.80;;;;;;;;;;4972082;28;20487;-74
2023/03/12 01:24:47;;;;;;;3.43;1.60;;;;;;;;;;4950114;28;20482;-74
2023/03/12 01:27:14;;;;;;;2.40;1.60;;;;;;;;;;4964809;28;20542;-74
2023/03/12 01:29:40;;;;;;;2.20;1.57;;;;;;;;;;4967683;28;20512;-74
2023/03/12 01:32:07;;;;;;;2.03;1.20;;;;;;;;;;4964677;28;20456;-73
2023/03/12 01:34:34;;;;;;;2.13;1.30;;;;;;;;;;4946008;28;21072;-73
2023/03/12 01:37:01;;;;;;;2.07;1.40;;;;;;;;;;4965696;28;20460;-74
2023/03/12 01:39:27;;;;;;;1.97;1.43;;;;;;;;;;4941931;28;21934;-74
2023/03/12 01:41:54;;;;;;;1.37;1.23;;;;;;;;;;4948413;28;20453;-74
2023/03/12 02:16:14;;;;;;;4.07;0.90;;;;;;;;;;4962589;28;20494;-73
2023/03/12 02:18:41;;;;;;;5.20;1.13;;;;;;;;;;4948915;28;22959;-74
2023/03/12 02:21:28;;;;;;;3.97;1.00;;;;;;;;;;4973599;28;21007;-74
2023/03/12 02:23:57;;;;;;;1.50;0.50;;;;;;;;;;4968058;28;21280;-73
2023/03/12 02:26:27;;;;;;;2.57;1.00;;;;;;;;;;4966509;28;20471;-73
2023/03/12 02:28:54;;;;;;;3.57;0.90;;;;;;;;;;4950471;28;20538;-72
2023/03/12 02:31:22;;;;;;;2.67;0.50;;;;;;;;;;4952544;28;20546;-75
2023/03/12 02:33:50;;;;;;;1.60;0.70;;;;;;;;;;4983600;28;20455;-73
2023/03/12 02:36:17;;;;;;;1.77;0.70;;;;;;;;;;4968306;28;20459;-74
2023/03/12 02:38:53;;;;;;;4.77;0.70;;;;;;;;;;4966391;28;21044;-73
2023/03/12 02:41:20;;;;;;;3.07;0.70;;;;;;;;;;4966339;28;20471;-74
2023/03/12 02:43:49;;;;;;;2.23;0.80;;;;;;;;;;4966286;28;20467;-72
2023/03/12 02:46:15;;;;;;;4.33;0.80;;;;;;;;;;4967808;28;20455;-73
2023/03/12 02:48:42;;;;;;;5.60;0.73;;;;;;;;;;4966204;28;20546;-73
2023/03/12 02:51:09;;;;;;;3.27;0.77;;;;;;;;;;4985380;28;20459;-73
2023/03/12 02:53:35;;;;;;;2.10;0.80;;;;;;;;;;4981137;28;20463;-73
2023/03/12 02:56:02;;;;;;;2.30;0.90;;;;;;;;;;4984101;28;20451;-73
2023/03/12 02:58:29;;;;;;;2.93;0.80;;;;;;;;;;4981971;28;20459;-73
2023/03/12 03:00:56;;;;;;;1.33;0.57;;;;;;;;;;4983224;28;21178;-73
2023/03/12 03:03:22;;;;;;;0.60;0.23;;;;;;;;;;4982243;28;20455;-73
2023/03/12 03:05:50;;;;;;;4.83;0.87;;;;;;;;;;4983752;28;20546;-73
2023/03/12 03:08:17;;;;;;;3.93;0.97;;;;;;;;;;4981822;28;20953;-73
2023/03/12 03:10:44;;;;;;;0.97;0.40;;;;;;;;;;4966825;28;20463;-73
2023/03/12 03:13:10;;;;;;;4.93;0.70;;;;;;;;;;4983569;28;20479;-73
2023/03/12 03:15:37;;;;;;;2.57;0.80;;;;;;;;;;4984810;28;20552;-73
2023/03/12 03:18:04;;;;;;;3.67;1.00;;;;;;;;;;4982291;28;20459;-73
2023/03/12 03:21:15;;;;;;;5.33;1.27;;;;;;;;;;4984283;28;21239;-73
2023/03/12 03:23:44;;;;;;;3.83;1.03;;;;;;;;;;4978960;28;20487;-73
2023/03/12 03:26:28;;;;;;;1.20;0.50;;;;;;;;;;4983355;28;20863;-73
2023/03/12 03:28:54;;;;;;;2.57;0.60;;;;;;;;;;4982805;28;21032;-73
2023/03/12 03:31:21;;;;;;;4.33;0.80;;;;;;;;;;4967085;28;20527;-73
2023/03/12 03:33:48;;;;;;;1.90;0.60;;;;;;;;;;4965368;28;20447;-73
2023/03/12 03:36:15;;;;;;;4.37;0.70;;;;;;;;;;4967252;28;20462;-74
2023/03/12 03:38:58;;;;;;;2.33;0.43;;;;;;;;;;4964564;28;20463;-73
2023/03/12 03:41:25;;;;;;;3.43;0.40;;;;;;;;;;4950984;28;20600;-73
2023/03/12 03:43:57;;;;;;;2.53;0.50;;;;;;;;;;4964333;28;20562;-73
2023/03/12 03:46:24;;;;;;;7.93;0.60;;;;;;;;;;4965470;28;20981;-73
2023/03/12 03:48:56;;;;;;;3.60;0.47;;;;;;;;;;4966334;28;20973;-74
2023/03/12 03:51:23;;;;;;;3.87;0.50;;;;;;;;;;4946875;28;23625;-73
2023/03/12 03:53:54;;;;;;;5.17;0.63;;;;;;;;;;4960984;28;20471;-73
2023/03/12 03:56:21;;;;;;;2.23;0.43;;;;;;;;;;4946607;28;22755;-73
2023/03/12 03:58:49;;;;;;;2.23;0.57;;;;;;;;;;4945167;28;20471;-74
2023/03/12 04:01:18;;;;;;;3.20;0.63;;;;;;;;;;4957935;28;20544;-73
2023/03/12 04:03:45;;;;;;;0.67;0.30;;;;;;;;;;4966019;28;20479;-73
2023/03/12 04:06:12;;;;;;;6.50;1.67;;;;;;;;;;4964347;28;20467;-73
2023/03/12 04:08:39;;;;;;;5.60;0.90;;;;;;;;;;4966160;28;20481;-73
2023/03/12 04:11:10;;;;;;;5.40;0.53;;;;;;;;;;4963853;28;21166;-73
2023/03/12 04:13:37;;;;;;;1.93;0.30;;;;;;;;;;4980584;28;20463;-74
2023/03/12 04:16:05;;;;;;;2.63;0.67;;;;;;;;;;4961370;28;20484;-73
2023/03/12 04:18:32;;;;;;;2.93;0.40;;;;;;;;;;4942189;28;20468;-73
2023/03/12 04:20:59;;;;;;;3.60;0.50;;;;;;;;;;4945660;28;20920;-74
2023/03/12 04:23:26;;;;;;;2.70;0.80;;;;;;;;;;4943674;28;20464;-73
2023/03/12 04:25:53;;;;;;;1.23;0.20;;;;;;;;;;4926213;28;21151;-71
2023/03/12 04:28:20;;;;;;;2.17;0.50;;;;;;;;;;4933234;28;20452;-73
2023/03/12 04:31:00;;;;;;;2.63;0.60;;;;;;;;;;4943477;28;20856;-73
2023/03/12 04:33:34;;;;;;;1.37;0.50;;;;;;;;;;4961638;28;20451;-73
2023/03/12 04:36:00;;;;;;;2.73;0.60;;;;;;;;;;4961661;28;20542;-73
2023/03/12 04:38:27;;;;;;;2.70;0.40;;;;;;;;;;4947016;28;20494;-73
2023/03/12 04:41:01;;;;;;;2.00;0.40;;;;;;;;;;4961263;28;20526;-73
2023/03/12 04:43:28;;;;;;;1.80;0.47;;;;;;;;;;4961611;28;20479;-74
2023/03/12 04:45:55;;;;;;;4.00;0.50;;;;;;;;;;4963077;28;20466;-73
2023/03/12 04:48:22;;;;;;;2.47;0.87;;;;;;;;;;4962752;28;20464;-73
2023/03/12 04:50:50;;;;;;;4.07;0.60;;;;;;;;;;4977079;28;20840;-72
2023/03/12 04:53:17;;;;;;;3.37;0.90;;;;;;;;;;4978605;28;20553;-73
2023/03/12 04:55:44;;;;;;;1.90;0.70;;;;;;;;;;4976928;28;20482;-73
2023/03/12 04:58:11;;;;;;;2.77;0.40;;;;;;;;;;4964546;28;20959;-72
2023/03/12 05:00:38;;;;;;;2.17;0.73;;;;;;;;;;4977224;28;20455;-72
2023/03/12 05:03:05;;;;;;;1.13;0.40;;;;;;;;;;4979503;28;20818;-74
2023/03/12 05:05:49;;;;;;;3.60;0.40;;;;;;;;;;4978978;28;20446;-72
2023/03/12 05:08:16;;;;;;;1.13;0.40;;;;;;;;;;4981815;28;20462;-72
2023/03/12 05:11:00;;;;;;;4.23;0.80;;;;;;;;;;4981133;28;23181;-73
2023/03/12 05:13:27;;;;;;;1.53;0.30;;;;;;;;;;4980866;28;20470;-72
2023/03/12 05:16:12;;;;;;;1.73;0.87;;;;;;;;;;4983133;28;21039;-73
2023/03/12 05:18:39;;;;;;;1.63;0.90;;;;;;;;;;4963654;28;20463;-73
2023/03/12 05:21:24;;;;;;;1.17;0.50;;;;;;;;;;4965341;28;20478;-73
2023/03/12 05:23:53;;;;;;;2.13;0.57;;;;;;;;;;4964064;28;20548;-73
2023/03/12 05:26:24;;;;;;;4.37;0.83;;;;;;;;;;4951683;28;20458;-72
2023/03/12 05:28:55;;;;;;;1.13;0.53;;;;;;;;;;4967216;28;20463;-73
2023/03/12 05:31:39;;;;;;;1.87;0.87;;;;;;;;;;4949540;28;20578;-70
2023/03/12 05:34:09;;;;;;;3.80;0.77;;;;;;;;;;4949010;28;20543;-71
2023/03/12 05:36:37;;;;;;;3.13;0.63;;;;;;;;;;4977075;28;20950;-71
2023/03/12 05:39:04;;;;;;;1.97;0.70;;;;;;;;;;4989164;28;20554;-71
2023/03/12 05:41:32;;;;;;;2.20;0.90;;;;;;;;;;4985367;28;20561;-69
2023/03/12 05:44:05;;;;;;;3.40;0.63;;;;;;;;;;5004392;28;20454;-71
2023/03/12 05:46:32;;;;;;;0.90;0.37;;;;;;;;;;4997907;28;20467;-70
2023/03/12 05:48:59;;;;;;;1.37;0.40;;;;;;;;;;4961370;28;20456;-76
2023/03/12 05:51:26;;;;;;;4.43;0.60;;;;;;;;;;4965721;28;20459;-72
2023/03/12 05:53:52;;;;;;;3.40;0.87;;;;;;;;;;4965295;28;20504;-72
2023/03/12 05:56:19;;;;;;;1.73;0.50;;;;;;;;;;4958404;28;215890;-70
2023/03/12 05:58:46;;;;;;;1.43;0.40;;;;;;;;;;4962318;28;20950;-71
2023/03/12 06:01:14;;;;;;;1.60;0.53;;;;;;;;;;4979471;28;20459;-71
2023/03/12 06:03:42;;;;;;;1.07;0.57;;;;;;;;;;4980612;28;20486;-70
2023/03/12 06:06:09;;;;;;;3.17;0.60;;;;;;;;;;4968888;28;20456;-70
2023/03/12 06:08:36;;;;;;;0.70;0.40;;;;;;;;;;4971467;28;20456;-71
2023/03/12 06:11:02;;;;;;;2.70;0.60;;;;;;;;;;4970098;28;20513;-71
2023/03/12 06:13:29;;;;;;;2.27;1.00;;;;;;;;;;4982899;28;20462;-69
2023/03/12 06:16:17;;;;;;;4.10;2.13;;;;;;;;;;4968786;28;20467;-71
2023/03/12 06:18:47;;;;;;;2.80;1.40;;;;;;;;;;4984136;28;20455;-71
2023/03/12 06:21:18;;;;;;;3.57;1.20;;;;;;;;;;4979962;28;20563;-70
2023/03/12 06:23:46;;;;;;;5.20;0.73;;;;;;;;;;5004491;28;20466;-70
2023/03/12 06:26:17;;;;;;;4.57;0.90;;;;;;;;;;5002343;28;20473;-71
2023/03/12 06:28:45;;;;;;;6.43;1.10;;;;;;;;;;5004147;28;20813;-72
2023/03/12 06:31:11;;;;;;;3.93;1.30;;;;;;;;;;4996798;28;20463;-70
2023/03/12 06:33:38;;;;;;;3.93;1.33;;;;;;;;;;4985864;28;20818;-71
2023/03/12 06:36:05;;;;;;;3.93;1.17;;;;;;;;;;4981670;28;20602;-70
2023/03/12 06:38:32;;;;;;;3.47;0.83;;;;;;;;;;4985652;28;20835;-70
2023/03/12 06:40:59;;;;;;;4.37;1.17;;;;;;;;;;4984162;28;20459;-69
2023/03/12 06:43:26;;;;;;;2.40;1.10;;;;;;;;;;4986083;28;20462;-69
2023/03/12 06:45:53;;;;;;;5.50;1.77;;;;;;;;;;4984183;28;20466;-70
2023/03/12 06:48:20;;;;;;;3.93;0.90;;;;;;;;;;4957603;28;20459;-71
2023/03/12 06:50:50;;;;;;;3.30;1.10;;;;;;;;;;4978147;28;20574;-71
2023/03/12 06:53:34;;;;;;;5.00;1.03;;;;;;;;;;4997482;28;37443;-71
2023/03/12 06:56:01;;;;;;;4.30;1.70;;;;;;;;;;4996139;28;20469;-71
2023/03/12 06:58:29;;;;;;;2.23;0.87;;;;;;;;;;4967025;28;20534;-71
2023/03/12 07:00:55;;;;;;;2.73;0.37;;;;;;;;;;4999691;28;21066;-71
2023/03/12 07:03:22;;;;;;;3.37;0.80;;;;;;;;;;4985452;28;20812;-71
2023/03/12 07:06:11;;;;;;;6.27;1.30;;;;;;;;;;4982077;28;20459;-71
2023/03/12 07:08:38;;;;;;;13.97;4.80;;;;;;;;;;4982126;28;20454;-71
2023/03/12 07:11:04;;;;;;;2.83;1.00;;;;;;;;;;4984902;28;20459;-71
2023/03/12 07:13:31;;;;;;;3.90;1.33;;;;;;;;;;4982419;28;20458;-71
2023/03/12 07:15:58;;;;;;;5.00;1.20;;;;;;;;;;4994222;28;31879;-71
2023/03/12 07:18:25;;;;;;;1.67;0.73;;;;;;;;;;4985935;28;20462;-70
2023/03/12 07:20:53;;;;;;;3.43;1.03;;;;;;;;;;4985214;28;20522;-69
2023/03/12 07:23:22;;;;;;;3.00;0.90;;;;;;;;;;4983632;28;20960;-71
2023/03/12 07:26:06;;;;;;;1.73;0.80;;;;;;;;;;4981740;28;20457;-70
2023/03/12 07:28:33;;;;;;;1.23;0.40;;;;;;;;;;4983807;28;20542;-71
2023/03/12 07:31:00;;;;;;;3.43;1.20;;;;;;;;;;4982264;28;20527;-70
2023/03/12 07:33:27;;;;;;;2.60;1.03;;;;;;;;;;4983763;28;20474;-71
2023/03/12 07:35:54;;;;;;;2.17;1.13;;;;;;;;;;4991313;28;20469;-71
2023/03/12 07:38:21;;;;;;;3.40;0.87;;;;;;;;;;4975055;28;20469;-71
2023/03/12 07:40:52;;;;;;;4.73;1.10;;;;;;;;;;4974238;28;20467;-70
2023/03/12 07:43:18;;;;;;;4.07;1.07;;;;;;;;;;4981622;28;20814;-70
2023/03/12 07:45:48;;;;;;;6.83;1.10;;;;;;;;;;4965592;28;20460;-71
2023/03/12 07:48:16;;;;;;;3.93;1.00;;;;;;;;;;4965985;28;20546;-71
2023/03/12 07:50:42;;;;;;;4.23;1.00;;;;;;;;;;4982023;28;20682;-70
2023/03/12 07:53:09;;;;;;;1.63;0.80;;;;;;;;;;4983360;28;20966;-70
2023/03/12 07:55:36;;;;;;;2.33;0.97;;;;;;;;;;4985970;28;20458;-70
2023/03/12 07:58:03;;;;;;;6.53;2.17;;;;;;;;;;4984148;28;22512;-71
2023/03/12 08:00:30;;;;;;;7.03;1.77;;;;;;;;;;4982439;28;20455;-70
2023/03/12 08:02:57;;;;;;;2.47;1.30;;;;;;;;;;4981844;28;20463;-70
2023/03/12 08:05:25;;;;;;;4.77;1.80;;;;;;;;;;4983051;28;20255;-70
2023/03/12 08:07:52;;;;;;;8.10;2.70;;;;;;;;;;4981978;28;20461;-70
2023/03/12 08:10:19;;;;;;;5.17;1.80;;;;;;;;;;4982243;28;20467;-70
2023/03/12 08:12:46;;;;;;;6.37;1.93;;;;;;;;;;4981261;28;20586;-70
2023/03/12 08:15:13;;;;;;;12.73;3.30;;;;;;;;;;4983344;28;21228;-70
2023/03/12 08:17:40;;;;;;;5.03;1.00;;;;;;;;;;4978069;28;20593;-70
2023/03/12 08:20:08;;;;;;;4.07;1.43;;;;;;;;;;4981828;28;20998;-70
2023/03/12 08:22:35;;;;;;;5.40;1.40;;;;;;;;;;4983639;28;20975;-69
2023/03/12 08:25:02;;;;;;;5.83;1.30;;;;;;;;;;4979275;28;20470;-69
2023/03/12 08:27:29;;;;;;;4.77;1.30;;;;;;;;;;4984945;28;21056;-70
2023/03/12 08:29:56;;;;;;;9.03;4.87;;;;;;;;;;4980331;28;20533;-70
2023/03/12 08:32:23;;;;;;;7.43;2.03;;;;;;;;;;4983463;28;20489;-70
2023/03/12 08:34:49;;;;;;;60.07;25.37;;;;;;;;;;4980861;28;20451;-70
2023/03/12 08:37:16;;;;;;;5.23;1.80;;;;;;;;;;4984397;28;20474;-70
2023/03/12 08:39:43;;;;;;;7.47;2.43;;;;;;;;;;4982359;28;20463;-70
2023/03/12 08:42:10;;;;;;;12.40;5.97;;;;;;;;;;4980342;28;20534;-70
2023/03/12 08:44:37;;;;;;;24.90;11.93;;;;;;;;;;4977358;28;20483;-70
2023/03/12 08:47:03;;;;;;;5.83;2.30;;;;;;;;;;4964693;28;20459;-70
2023/03/12 08:49:30;;;;;;;12.17;4.40;;;;;;;;;;4979079;28;20532;-70
2023/03/12 08:51:57;;;;;;;5.20;2.10;;;;;;;;;;4985754;28;20525;-71
2023/03/12 08:54:23;;;;;;;7.17;2.50;;;;;;;;;;4978510;28;20459;-70
2023/03/12 08:56:50;;;;;;;4.23;1.63;;;;;;;;;;4987377;28;20594;-70
2023/03/12 08:59:19;;;;;;;5.27;1.40;;;;;;;;;;4982564;28;20228;-69
2023/03/12 09:01:45;;;;;;;4.10;1.60;;;;;;;;;;4985916;28;21160;-70
2023/03/12 09:04:12;;;;;;;7.37;2.03;;;;;;;;;;4985530;28;20845;-70
2023/03/12 09:06:56;;;;;;;4.47;1.30;;;;;;;;;;4980458;28;20819;-70
2023/03/12 09:09:23;;;;;;;9.00;2.00;;;;;;;;;;4981998;28;20806;-69
2023/03/12 09:11:50;;;;;;;4.73;1.10;;;;;;;;;;4925867;28;20461;-70
2023/03/12 09:14:17;;;;;;;2.90;1.03;;;;;;;;;;4968097;28;20632;-69
2023/03/12 09:17:03;;;;;;;4.90;1.30;;;;;;;;;;4986472;28;20302;-70
2023/03/12 09:19:30;;;;;;;5.47;1.50;;;;;;;;;;4985319;28;20694;-69
2023/03/12 09:21:57;;;;;;;4.83;1.20;;;;;;;;;;4992913;28;20461;-69
2023/03/12 09:24:23;;;;;;;3.57;1.30;;;;;;;;;;4980101;28;20247;-70
2023/03/12 09:26:50;;;;;;;2.47;0.73;;;;;;;;;;4965012;28;20477;-70
2023/03/12 09:29:17;;;;;;;2.47;0.90;;;;;;;;;;4981557;28;20974;-70
2023/03/12 09:31:45;;;;;;;4.90;1.50;;;;;;;;;;4984253;28;20463;-69
2023/03/12 09:34:12;;;;;;;7.10;1.93;;;;;;;;;;4984486;28;20486;-70
2023/03/12 09:36:39;;;;;;;4.90;1.63;;;;;;;;;;4979886;28;20262;-69
2023/03/12 09:39:06;;;;;;;7.17;1.07;;;;;;;;;;4979986;28;20278;-69
2023/03/12 09:41:33;;;;;;;2.97;1.30;;;;;;;;;;4979344;28;20562;-69
2023/03/12 09:44:09;;;;;;;6.17;1.17;;;;;;;;;;4966070;28;20240;-70
2023/03/12 09:46:36;;;;;;;5.47;1.40;;;;;;;;;;4981737;28;20475;-69
2023/03/12 09:49:04;;;;;;;6.90;2.87;;;;;;;;;;4980051;28;20319;-69
2023/03/12 09:51:32;;;;;;;4.90;1.33;;;;;;;;;;4982516;28;20232;-70
2023/03/12 09:54:01;;;;;;;3.27;0.77;;;;;;;;;;4947285;28;20286;-69
2023/03/12 09:56:28;;;;;;;2.43;1.03;;;;;;;;;;4964201;28;20245;-69
2023/03/12 09:58:55;;;;;;;5.80;1.73;;;;;;;;;;4981513;28;20826;-69
2023/03/12 10:01:28;;;;;;;2.27;1.37;;;;;;;;;;4981812;28;20548;-69
2023/03/12 10:04:13;;;;;;;3.83;1.30;;;;;;;;;;4962334;28;20447;-69
2023/03/12 10:06:43;;;;;;;10.67;4.30;;;;;;;;;;4966443;28;20504;-70
2023/03/12 10:09:12;;;;;;;7.83;2.23;;;;;;;;;;4981073;28;20235;-70
2023/03/12 10:11:52;;;;;;;2.33;0.90;;;;;;;;;;4980426;28;23799;-70
2023/03/12 10:14:38;;;;;;;4.07;1.20;;;;;;;;;;4962776;28;20220;-70
2023/03/12 10:17:11;;;;;;;2.27;1.00;;;;;;;;;;4962317;28;20255;-70
2023/03/12 10:19:45;;;;;;;2.30;1.27;;;;;;;;;;4979063;28;20219;-70
2023/03/12 10:22:13;;;;;;;3.53;1.20;;;;;;;;;;4996661;28;20737;-70
2023/03/12 10:24:42;;;;;;;4.10;1.37;;;;;;;;;;4983108;28;20327;-70
2023/03/12 10:27:15;;;;;;;4.03;1.23;;;;;;;;;;4958495;28;20232;-70
2023/03/12 10:29:43;;;;;;;5.13;1.43;;;;;;;;;;4955438;28;20243;-70
2023/03/12 10:32:10;;;;;;;3.43;1.03;;;;;;;;;;4966573;28;20689;-70
2023/03/12 10:34:50;;;;;;;4.27;1.37;;;;;;;;;;4983280;28;20242;-70
2023/03/12 10:37:36;;;;;;;2.03;1.10;;;;;;;;;;4963314;28;20247;-70
2023/03/12 10:40:04;;;;;;;3.90;1.30;;;;;;;;;;4970862;28;20235;-70
2023/03/12 10:42:31;;;;;;;7.67;2.33;;;;;;;;;;4962472;28;20291;-70
2023/03/12 10:45:00;;;;;;;5.27;1.30;;;;;;;;;;4976898;28;20326;-70
2023/03/12 10:47:29;;;;;;;2.50;1.00;;;;;;;;;;4990158;28;20813;-70
2023/03/12 10:50:10;;;;;;;3.00;0.90;;;;;;;;;;4965104;28;20478;-70
2023/03/12 10:52:36;;;;;;;4.60;0.70;;;;;;;;;;4983024;28;20466;-70
2023/03/12 10:55:11;;;;;;;3.40;0.83;;;;;;;;;;4981734;28;20462;-71
2023/03/12 10:57:39;;;;;;;4.40;1.00;;;;;;;;;;4964139;28;20459;-70
2023/03/12 11:00:09;;;;;;;4.90;1.40;;;;;;;;;;4981267;28;20824;-70
2023/03/12 11:02:39;;;;;;;11.60;4.40;;;;;;;;;;4982378;28;20474;-70
2023/03/12 11:05:19;;;;;;;7.67;1.67;;;;;;;;;;4982634;28;20458;-71
2023/03/12 11:07:46;;;;;;;17.40;5.20;;;;;;;;;;4982732;28;20462;-71
2023/03/12 11:10:20;;;;;;;3.77;1.33;;;;;;;;;;4984777;28;20224;-70
2023/03/12 11:12:50;;;;;;;2.53;0.90;;;;;;;;;;4982767;28;20317;-71
2023/03/12 11:15:17;;;;;;;15.27;5.10;;;;;;;;;;4981286;28;20607;-70
2023/03/12 11:17:44;;;;;;;42.93;14.73;;;;;;;;;;4981952;28;20353;-71
2023/03/12 11:20:37;;;;;;;3.87;1.20;;;;;;;;;;4993956;28;20227;-70
2023/03/12 11:23:12;;;;;;;47.43;13.17;;;;;;;;;;4979940;28;20298;-71
2023/03/12 11:25:38;;;;;;;13.50;4.47;;;;;;;;;;4979516;28;20234;-71
2023/03/12 11:28:24;;;;;;;4.80;1.20;;;;;;;;;;4970703;28;20605;-71
2023/03/12 11:30:51;;;;;;;15.93;5.80;;;;;;;;;;4982953;28;20227;-71
2023/03/12 11:33:18;;;;;;;4.23;1.20;;;;;;;;;;4983866;28;24646;-71
2023/03/12 11:35:57;;;;;;;4.63;1.37;;;;;;;;;;4981888;28;20239;-71
2023/03/12 11:38:58;;;;;;;118.03;31.27;;;;;;;;;;4953625;28;20228;-71
2023/03/12 11:41:28;;;;;;;1.93;0.87;;;;;;;;;;4982439;28;20224;-70
2023/03/12 11:44:34;;;;;;;12.83;3.17;;;;;;;;;;4981546;28;20273;-70
2023/03/12 11:47:04;;;;;;;12.17;3.70;;;;;;;;;;4976158;28;20231;-70
2023/03/12 11:49:32;;;;;;;4.40;1.63;;;;;;;;;;4962933;28;20237;-70
2023/03/12 11:52:04;;;;;;;14.30;4.87;;;;;;;;;;4977082;28;20231;-70
2023/03/12 11:54:40;;;;;;;2.97;1.13;;;;;;;;;;4980267;28;20244;-70
2023/03/12 11:57:24;;;;;;;135.17;36.73;;;;;;;;;;4981400;28;20307;-69
2023/03/12 11:59:54;;;;;;;12.23;3.77;;;;;;;;;;4983836;28;20231;-69
2023/03/12 12:02:35;;;;;;;6.83;3.00;;;;;;;;;;4979540;28;20254;-69
2023/03/12 12:05:21;;;;;;;3.73;0.93;;;;;;;;;;4980888;28;20310;-70
2023/03/12 12:07:52;;;;;;;2.83;0.77;;;;;;;;;;4961323;28;20923;-71
2023/03/12 12:10:38;;;;;;;3.13;1.10;;;;;;;;;;4982309;28;20250;-71
2023/03/12 12:13:28;;;;;;;20.37;6.23;;;;;;;;;;4961425;28;20323;-71
2023/03/12 12:15:58;;;;;;;2.87;0.90;;;;;;;;;;4963538;28;20243;-71
2023/03/12 12:18:48;;;;;;;15.83;4.20;;;;;;;;;;4945756;28;20228;-71
2023/03/12 12:21:20;;;;;;;3.27;0.93;;;;;;;;;;4965440;28;20243;-71
2023/03/12 12:23:47;;;;;;;12.00;3.57;;;;;;;;;;4981748;28;20335;-71
2023/03/12 12:26:23;;;;;;;3.80;0.90;;;;;;;;;;4968518;28;20232;-72
2023/03/12 12:28:57;;;;;;;16.80;5.50;;;;;;;;;;4968983;28;20238;-71
2023/03/12 12:31:26;;;;;;;13.70;4.13;;;;;;;;;;4981586;28;20220;-72
2023/03/12 12:33:53;;;;;;;126.70;32.23;;;;;;;;;;4982970;28;20275;-72
2023/03/12 12:36:22;;;;;;;2.47;0.97;;;;;;;;;;4987701;28;20718;-72
2023/03/12 12:38:54;;;;;;;4.57;1.40;;;;;;;;;;4974222;28;20228;-72
2023/03/12 12:41:24;;;;;;;23.27;6.40;;;;;;;;;;4978220;28;20236;-72
2023/03/12 12:43:54;;;;;;;6.60;1.63;;;;;;;;;;4985534;28;20366;-71
2023/03/12 12:46:21;;;;;;;4.23;0.87;;;;;;;;;;4982910;28;20231;-72
2023/03/12 12:48:52;;;;;;;16.03;4.67;;;;;;;;;;4985572;28;20232;-71
2023/03/12 12:51:20;;;;;;;3.67;1.40;;;;;;;;;;4984800;28;20590;-71
2023/03/12 12:53:47;;;;;;;8.67;3.23;;;;;;;;;;4984041;28;20314;-71
2023/03/12 12:56:14;;;;;;;10.83;2.13;;;;;;;;;;4987071;28;20223;-70
2023/03/12 12:58:49;;;;;;;12.10;3.30;;;;;;;;;;4965107;28;20235;-70
2023/03/12 13:01:16;;;;;;;18.67;5.30;;;;;;;;;;4983308;28;20249;-70
2023/03/12 13:03:43;;;;;;;8.33;2.53;;;;;;;;;;4987369;28;20295;-70
2023/03/12 13:06:10;;;;;;;6.80;2.57;;;;;;;;;;4984418;28;20234;-70
2023/03/12 13:08:43;;;;;;;8.77;2.70;;;;;;;;;;4986704;28;20243;-70
2023/03/12 13:11:15;;;;;;;6.70;2.30;;;;;;;;;;4984345;28;20883;-70
2023/03/12 13:14:01;;;;;;;4.43;1.00;;;;;;;;;;4974084;28;20482;-70
2023/03/12 13:16:38;;;;;;;4.50;1.50;;;;;;;;;;4965276;28;20243;-70
2023/03/12 13:19:25;;;;;;;8.13;2.63;;;;;;;;;;4953139;28;20253;-71
2023/03/12 13:21:58;;;;;;;15.53;5.70;;;;;;;;;;4967118;28;20235;-71
2023/03/12 13:24:27;;;;;;;6.77;2.07;;;;;;;;;;4969372;28;20306;-71
2023/03/12 13:27:07;;;;;;;4.00;1.40;;;;;;;;;;4983226;28;20239;-71
2023/03/12 13:29:35;;;;;;;11.53;5.30;;;;;;;;;;4972675;28;20247;-71
2023/03/12 13:32:03;;;;;;;4.77;1.43;;;;;;;;;;4980303;28;20234;-71
2023/03/12 13:34:30;;;;;;;4.97;1.00;;;;;;;;;;4969121;28;20227;-70
2023/03/12 13:36:58;;;;;;;2.33;0.50;;;;;;;;;;4977995;28;20231;-71
2023/03/12 13:39:26;;;;;;;2.17;1.03;;;;;;;;;;4987100;28;20223;-71
2023/03/12 13:41:55;;;;;;;4.13;1.10;;;;;;;;;;4985440;28;20246;-71
2023/03/12 13:44:31;;;;;;;4.47;1.30;;;;;;;;;;4981464;28;20232;-71
2023/03/12 13:46:58;;;;;;;1.07;0.70;;;;;;;;;;4982367;28;20227;-71
2023/03/12 13:49:39;;;;;;;5.03;1.13;;;;;;;;;;4979883;28;20603;-70
2023/03/12 13:52:06;;;;;;;4.63;0.70;;;;;;;;;;4964785;28;20311;-71
2023/03/12 13:54:33;;;;;;;5.57;2.43;;;;;;;;;;4966968;28;20228;-71
2023/03/12 13:57:03;;;;;;;5.40;1.90;;;;;;;;;;4979976;28;20275;-71
2023/03/12 13:59:30;;;;;;;3.73;1.40;;;;;;;;;;4981465;28;20238;-71
2023/03/12 14:01:58;;;;;;;6.73;3.20;;;;;;;;;;4986019;28;20232;-71
2023/03/12 14:04:29;;;;;;;4.63;1.50;;;;;;;;;;4983057;28;20318;-71
2023/03/12 14:07:21;;;;;;;3.77;1.00;;;;;;;;;;4981299;28;20220;-71
2023/03/12 14:09:51;;;;;;;3.50;1.20;;;;;;;;;;4979032;28;20239;-70
2023/03/12 14:12:29;;;;;;;10.20;4.83;;;;;;;;;;4984058;28;20228;-70
2023/03/12 14:14:56;;;;;;;5.57;2.53;;;;;;;;;;4965607;28;20239;-71
2023/03/12 14:17:23;;;;;;;11.03;2.10;;;;;;;;;;4984939;28;20751;-69
2023/03/12 14:19:52;;;;;;;1.63;0.70;;;;;;;;;;4989460;28;20745;-71
2023/03/12 14:22:21;;;;;;;1.93;0.70;;;;;;;;;;4985311;28;20257;-70
2023/03/12 14:25:08;;;;;;;3.90;1.00;;;;;;;;;;4982298;28;20399;-71
2023/03/12 14:27:36;;;;;;;2.77;1.13;;;;;;;;;;4968708;28;20306;-71
2023/03/12 14:30:05;;;;;;;2.10;1.27;;;;;;;;;;4935989;28;20225;-71
2023/03/12 14:32:32;;;;;;;4.97;1.60;;;;;;;;;;4946529;28;20225;-70
2023/03/12 14:35:16;;;;;;;3.97;1.20;;;;;;;;;;4956408;28;20228;-71
2023/03/12 14:37:44;;;;;;;3.57;1.70;;;;;;;;;;4980773;28;20240;-71
2023/03/12 14:40:17;;;;;;;3.70;1.30;;;;;;;;;;4981197;28;20626;-71
2023/03/12 14:42:44;;;;;;;3.63;1.20;;;;;;;;;;4982266;28;20487;-73
2023/03/12 14:45:15;;;;;;;3.37;0.90;;;;;;;;;;4983216;28;20231;-71
2023/03/12 14:47:57;;;;;;;3.33;1.13;;;;;;;;;;4980904;28;20285;-71
2023/03/12 14:50:28;;;;;;;3.50;2.00;;;;;;;;;;4965870;28;20313;-71
2023/03/12 14:53:10;;;;;;;4.30;1.80;;;;;;;;;;4981812;28;20462;-71
2023/03/12 14:55:37;;;;;;;3.07;1.20;;;;;;;;;;4979267;28;20250;-71
2023/03/12 14:58:04;;;;;;;4.27;1.50;;;;;;;;;;4962659;28;20342;-71
2023/03/12 15:00:31;;;;;;;4.73;1.30;;;;;;;;;;4965723;28;20232;-71
2023/03/12 15:02:58;;;;;;;2.47;1.27;;;;;;;;;;4961471;28;20232;-71
2023/03/12 15:05:25;;;;;;;4.33;1.47;;;;;;;;;;4972199;28;20507;-71
2023/03/12 15:07:53;;;;;;;4.80;1.70;;;;;;;;;;4981391;28;20887;-71
2023/03/12 15:10:19;;;;;;;5.17;1.40;;;;;;;;;;4982199;28;20538;-71
2023/03/12 15:12:46;;;;;;;3.70;1.47;;;;;;;;;;4984799;28;20481;-71
2023/03/12 15:15:34;;;;;;;5.67;1.50;;;;;;;;;;4981520;28;20466;-71
2023/03/12 15:18:03;;;;;;;6.27;1.57;;;;;;;;;;4945648;28;20585;-71
2023/03/12 15:20:29;;;;;;;4.27;1.13;;;;;;;;;;4961816;28;20468;-72
2023/03/12 15:22:56;;;;;;;4.37;0.90;;;;;;;;;;4963929;28;22731;-72
2023/03/12 15:25:27;;;;;;;2.83;1.13;;;;;;;;;;4976499;28;20707;-71
2023/03/12 15:28:01;;;;;;;4.97;1.40;;;;;;;;;;4962057;28;20535;-71
2023/03/12 15:30:28;;;;;;;4.07;1.40;;;;;;;;;;4945821;28;20221;-71